sensor_id;sensor_type;location;lat;lon;timestamp;temperature;humidity
4602;DHT22;2313;48.552;9.370;2023-12-07T00:00:51;3.00;99.90
4602;DHT22;2313;48.552;9.370;2023-12-07T00:03:16;3.00;99.90
4602;DHT22;2313;48.552;9.370;2023-12-07T00:05:42;2.90;99.90
4602;DHT22;2313;48.552;9.370;2023-12-07T00:08:11;2.90;99.90
4602;DHT22;2313;48.552;9.370;2023-12-07T00:10:36;2.90;99.90
4602;DHT22;2313;48.552;9.370;2023-12-07T00:13:02;2.90;99.90
4602;DHT22;2313;48.552;9.370;2023-12-07T00:15:28;2.80;99.90
4602;DHT22;2313;48.552;9.370;2023-12-07T00:17:53;2.90;99.90
4602;DHT22;2313;48.552;9.370;2023-12-07T00:20:19;2.90;99.90
4602;DHT22;2313;48.552;9.370;2023-12-07T00:22:44;2.90;99.90
4602;DHT22;2313;48.552;9.370;2023-12-07T00:25:10;3.00;99.90
4602;DHT22;2313;48.552;9.370;2023-12-07T00:27:36;2.90;99.90
4602;DHT22;2313;48.552;9.370;2023-12-07T00:30:02;2.90;99.90
4602;DHT22;2313;48.552;9.370;2023-12-07T00:32:29;3.00;99.90
4602;DHT22;2313;48.552;9.370;2023-12-07T00:34:54;3.00;99.90
4602;DHT22;2313;48.552;9.370;2023-12-07T00:37:20;3.00;99.90
4602;DHT22;2313;48.552;9.370;2023-12-07T00:39:46;3.00;99.90
4602;DHT22;2313;48.552;9.370;2023-12-07T00:42:11;2.90;99.90
4602;DHT22;2313;48.552;9.370;2023-12-07T00:44:40;2.80;99.90
4602;DHT22;2313;48.552;9.370;2023-12-07T00:47:06;2.80;99.90
4602;DHT22;2313;48.552;9.370;2023-12-07T00:49:32;2.80;99.90
4602;DHT22;2313;48.552;9.370;2023-12-07T00:51:58;2.70;99.90
4602;DHT22;2313;48.552;9.370;2023-12-07T00:54:23;2.80;99.90
4602;DHT22;2313;48.552;9.370;2023-12-07T00:56:49;2.80;99.90
4602;DHT22;2313;48.552;9.370;2023-12-07T00:59:14;2.80;99.90
4602;DHT22;2313;48.552;9.370;2023-12-07T01:01:40;2.70;99.90
4602;DHT22;2313;48.552;9.370;2023-12-07T01:04:06;2.70;99.90
4602;DHT22;2313;48.552;9.370;2023-12-07T01:06:31;2.70;99.90
4602;DHT22;2313;48.552;9.370;2023-12-07T01:08:57;2.80;99.90
4602;DHT22;2313;48.552;9.370;2023-12-07T01:11:23;2.80;99.90
4602;DHT22;2313;48.552;9.370;2023-12-07T01:13:48;2.80;99.90
4602;DHT22;2313;48.552;9.370;2023-12-07T01:16:14;2.80;99.90
4602;DHT22;2313;48.552;9.370;2023-12-07T01:18:40;2.80;99.90
4602;DHT22;2313;48.552;9.370;2023-12-07T01:21:05;2.90;99.90
4602;DHT22;2313;48.552;9.370;2023-12-07T01:23:31;2.80;99.90
4602;DHT22;2313;48.552;9.370;2023-12-07T01:25:57;2.80;99.90
4602;DHT22;2313;48.552;9.370;2023-12-07T01:28:23;2.90;99.90
4602;DHT22;2313;48.552;9.370;2023-12-07T01:30:48;2.90;99.90
4602;DHT22;2313;48.552;9.370;2023-12-07T01:33:14;2.80;99.90
4602;DHT22;2313;48.552;9.370;2023-12-07T01:35:40;2.70;99.90
4602;DHT22;2313;48.552;9.370;2023-12-07T01:38:06;2.70;99.90
4602;DHT22;2313;48.552;9.370;2023-12-07T01:40:32;2.70;99.90
4602;DHT22;2313;48.552;9.370;2023-12-07T01:42:57;2.70;99.90
4602;DHT22;2313;48.552;9.370;2023-12-07T01:45:23;2.60;99.90
4602;DHT22;2313;48.552;9.370;2023-12-07T01:47:50;2.60;99.90
4602;DHT22;2313;48.552;9.370;2023-12-07T01:50:18;2.50;99.90
4602;DHT22;2313;48.552;9.370;2023-12-07T01:52:51;2.40;99.90
4602;DHT22;2313;48.552;9.370;2023-12-07T01:55:18;2.30;99.90
4602;DHT22;2313;48.552;9.370;2023-12-07T01:57:45;2.30;99.90
4602;DHT22;2313;48.552;9.370;2023-12-07T02:00:12;2.20;99.90
4602;DHT22;2313;48.552;9.370;2023-12-07T02:02:38;2.20;99.90
4602;DHT22;2313;48.552;9.370;2023-12-07T02:05:04;2.20;99.90
4602;DHT22;2313;48.552;9.370;2023-12-07T02:07:30;2.20;99.90
4602;DHT22;2313;48.552;9.370;2023-12-07T02:09:57;2.10;99.90
4602;DHT22;2313;48.552;9.370;2023-12-07T02:12:24;2.00;99.90
4602;DHT22;2313;48.552;9.370;2023-12-07T02:14:51;2.00;99.90
4602;DHT22;2313;48.552;9.370;2023-12-07T02:17:27;1.90;99.90
4602;DHT22;2313;48.552;9.370;2023-12-07T02:20:17;1.90;99.90
4602;DHT22;2313;48.552;9.370;2023-12-07T02:22:54;1.80;99.90
4602;DHT22;2313;48.552;9.370;2023-12-07T02:25:24;1.70;99.90
4602;DHT22;2313;48.552;9.370;2023-12-07T02:27:51;1.60;99.90
4602;DHT22;2313;48.552;9.370;2023-12-07T02:30:17;1.50;99.90
4602;DHT22;2313;48.552;9.370;2023-12-07T02:32:44;1.40;99.90
4602;DHT22;2313;48.552;9.370;2023-12-07T02:35:11;1.30;99.90
4602;DHT22;2313;48.552;9.370;2023-12-07T02:37:46;1.30;99.90
4602;DHT22;2313;48.552;9.370;2023-12-07T02:40:14;1.30;99.90
4602;DHT22;2313;48.552;9.370;2023-12-07T02:42:41;1.20;99.90
4602;DHT22;2313;48.552;9.370;2023-12-07T02:45:09;1.10;99.90
4602;DHT22;2313;48.552;9.370;2023-12-07T02:47:35;1.00;99.90
4602;DHT22;2313;48.552;9.370;2023-12-07T02:50:05;0.90;99.90
4602;DHT22;2313;48.552;9.370;2023-12-07T02:52:31;0.70;99.90
4602;DHT22;2313;48.552;9.370;2023-12-07T02:54:56;0.70;99.90
4602;DHT22;2313;48.552;9.370;2023-12-07T02:57:22;0.70;99.90
4602;DHT22;2313;48.552;9.370;2023-12-07T02:59:48;0.70;99.90
4602;DHT22;2313;48.552;9.370;2023-12-07T03:02:13;0.70;99.90
4602;DHT22;2313;48.552;9.370;2023-12-07T03:04:39;0.60;99.90
4602;DHT22;2313;48.552;9.370;2023-12-07T03:07:04;0.60;99.90
4602;DHT22;2313;48.552;9.370;2023-12-07T03:09:30;0.50;99.90
4602;DHT22;2313;48.552;9.370;2023-12-07T03:11:55;0.40;99.90
4602;DHT22;2313;48.552;9.370;2023-12-07T03:14:21;0.40;99.90
4602;DHT22;2313;48.552;9.370;2023-12-07T03:16:46;0.40;99.90
4602;DHT22;2313;48.552;9.370;2023-12-07T03:19:12;0.40;99.90
4602;DHT22;2313;48.552;9.370;2023-12-07T03:21:41;0.40;99.90
4602;DHT22;2313;48.552;9.370;2023-12-07T03:24:08;0.40;99.90
4602;DHT22;2313;48.552;9.370;2023-12-07T03:26:34;0.40;99.90
4602;DHT22;2313;48.552;9.370;2023-12-07T03:28:59;0.50;99.90
4602;DHT22;2313;48.552;9.370;2023-12-07T03:31:25;0.50;99.90
4602;DHT22;2313;48.552;9.370;2023-12-07T03:33:51;0.50;99.90
4602;DHT22;2313;48.552;9.370;2023-12-07T03:36:16;0.50;99.90
4602;DHT22;2313;48.552;9.370;2023-12-07T03:38:42;0.60;99.90
4602;DHT22;2313;48.552;9.370;2023-12-07T03:41:08;0.70;99.90
4602;DHT22;2313;48.552;9.370;2023-12-07T03:43:33;0.70;99.90
4602;DHT22;2313;48.552;9.370;2023-12-07T03:45:59;0.70;99.90
4602;DHT22;2313;48.552;9.370;2023-12-07T03:48:25;0.70;99.90
4602;DHT22;2313;48.552;9.370;2023-12-07T03:50:50;0.70;99.90
4602;DHT22;2313;48.552;9.370;2023-12-07T03:53:16;0.70;99.90
4602;DHT22;2313;48.552;9.370;2023-12-07T03:55:42;0.60;99.90
4602;DHT22;2313;48.552;9.370;2023-12-07T03:58:07;0.60;99.90
4602;DHT22;2313;48.552;9.370;2023-12-07T04:00:33;0.70;99.90
4602;DHT22;2313;48.552;9.370;2023-12-07T04:02:58;0.80;99.90
4602;DHT22;2313;48.552;9.370;2023-12-07T04:05:24;0.80;99.90
4602;DHT22;2313;48.552;9.370;2023-12-07T04:07:50;0.80;99.90
4602;DHT22;2313;48.552;9.370;2023-12-07T04:10:15;0.80;99.90
4602;DHT22;2313;48.552;9.370;2023-12-07T04:12:41;0.80;99.90
4602;DHT22;2313;48.552;9.370;2023-12-07T04:15:07;0.70;99.90
4602;DHT22;2313;48.552;9.370;2023-12-07T04:17:33;0.70;99.90
4602;DHT22;2313;48.552;9.370;2023-12-07T04:19:59;0.60;99.90
4602;DHT22;2313;48.552;9.370;2023-12-07T04:22:24;0.60;99.90
4602;DHT22;2313;48.552;9.370;2023-12-07T04:24:50;0.50;99.90
4602;DHT22;2313;48.552;9.370;2023-12-07T04:27:15;0.50;99.90
4602;DHT22;2313;48.552;9.370;2023-12-07T04:29:41;0.50;99.90
4602;DHT22;2313;48.552;9.370;2023-12-07T04:32:07;0.40;99.90
4602;DHT22;2313;48.552;9.370;2023-12-07T04:34:33;0.40;99.90
4602;DHT22;2313;48.552;9.370;2023-12-07T04:36:59;0.40;99.90
4602;DHT22;2313;48.552;9.370;2023-12-07T04:39:24;0.30;99.90
4602;DHT22;2313;48.552;9.370;2023-12-07T04:41:50;0.20;99.90
4602;DHT22;2313;48.552;9.370;2023-12-07T04:44:16;0.30;99.90
4602;DHT22;2313;48.552;9.370;2023-12-07T04:46:42;0.30;99.90
4602;DHT22;2313;48.552;9.370;2023-12-07T04:49:08;0.30;99.90
4602;DHT22;2313;48.552;9.370;2023-12-07T04:51:34;0.20;99.90
4602;DHT22;2313;48.552;9.370;2023-12-07T04:53:59;0.20;99.90
4602;DHT22;2313;48.552;9.370;2023-12-07T04:56:25;0.20;99.90
4602;DHT22;2313;48.552;9.370;2023-12-07T04:58:51;0.30;99.90
4602;DHT22;2313;48.552;9.370;2023-12-07T05:01:16;0.40;99.90
4602;DHT22;2313;48.552;9.370;2023-12-07T05:03:44;0.40;99.90
4602;DHT22;2313;48.552;9.370;2023-12-07T05:06:10;0.40;99.90
4602;DHT22;2313;48.552;9.370;2023-12-07T05:08:35;0.50;99.90
4602;DHT22;2313;48.552;9.370;2023-12-07T05:11:01;0.50;99.90
4602;DHT22;2313;48.552;9.370;2023-12-07T05:13:26;0.50;99.90
4602;DHT22;2313;48.552;9.370;2023-12-07T05:15:52;0.50;99.90
4602;DHT22;2313;48.552;9.370;2023-12-07T05:18:18;0.60;99.90
4602;DHT22;2313;48.552;9.370;2023-12-07T05:20:43;0.60;99.90
4602;DHT22;2313;48.552;9.370;2023-12-07T05:23:09;0.60;99.90
4602;DHT22;2313;48.552;9.370;2023-12-07T05:25:34;0.60;99.90
4602;DHT22;2313;48.552;9.370;2023-12-07T05:28:00;0.70;99.90
4602;DHT22;2313;48.552;9.370;2023-12-07T05:30:26;0.80;99.90
4602;DHT22;2313;48.552;9.370;2023-12-07T05:32:53;0.80;99.90
4602;DHT22;2313;48.552;9.370;2023-12-07T05:35:19;0.80;99.90
4602;DHT22;2313;48.552;9.370;2023-12-07T05:37:44;0.80;99.90
4602;DHT22;2313;48.552;9.370;2023-12-07T05:40:10;0.70;99.90
4602;DHT22;2313;48.552;9.370;2023-12-07T05:42:37;0.70;99.90
4602;DHT22;2313;48.552;9.370;2023-12-07T05:45:03;0.70;99.90
4602;DHT22;2313;48.552;9.370;2023-12-07T05:47:30;0.60;99.90
4602;DHT22;2313;48.552;9.370;2023-12-07T05:49:55;0.60;99.90
4602;DHT22;2313;48.552;9.370;2023-12-07T05:52:23;0.60;99.90
4602;DHT22;2313;48.552;9.370;2023-12-07T05:54:49;0.60;99.90
4602;DHT22;2313;48.552;9.370;2023-12-07T05:57:14;0.60;99.90
4602;DHT22;2313;48.552;9.370;2023-12-07T05:59:40;0.60;99.90
4602;DHT22;2313;48.552;9.370;2023-12-07T06:02:07;0.60;99.90
4602;DHT22;2313;48.552;9.370;2023-12-07T06:04:33;0.60;99.90
4602;DHT22;2313;48.552;9.370;2023-12-07T06:06:58;0.70;99.90
4602;DHT22;2313;48.552;9.370;2023-12-07T06:09:24;0.60;99.90
4602;DHT22;2313;48.552;9.370;2023-12-07T06:11:49;0.50;99.90
4602;DHT22;2313;48.552;9.370;2023-12-07T06:14:15;0.40;99.90
4602;DHT22;2313;48.552;9.370;2023-12-07T06:16:40;0.30;99.90
4602;DHT22;2313;48.552;9.370;2023-12-07T06:19:06;0.30;99.90
4602;DHT22;2313;48.552;9.370;2023-12-07T06:21:32;0.20;99.90
4602;DHT22;2313;48.552;9.370;2023-12-07T06:23:58;0.10;99.90
4602;DHT22;2313;48.552;9.370;2023-12-07T06:26:24;0.00;99.90
4602;DHT22;2313;48.552;9.370;2023-12-07T06:28:50;-0.10;99.90
4602;DHT22;2313;48.552;9.370;2023-12-07T06:31:16;-0.20;99.90
4602;DHT22;2313;48.552;9.370;2023-12-07T06:33:45;-0.20;99.90
4602;DHT22;2313;48.552;9.370;2023-12-07T06:36:11;-0.30;99.90
4602;DHT22;2313;48.552;9.370;2023-12-07T06:38:37;-0.30;99.90
4602;DHT22;2313;48.552;9.370;2023-12-07T06:41:04;-0.30;99.90
4602;DHT22;2313;48.552;9.370;2023-12-07T06:43:29;-0.30;99.90
4602;DHT22;2313;48.552;9.370;2023-12-07T06:45:55;-0.30;99.90
4602;DHT22;2313;48.552;9.370;2023-12-07T06:48:21;-0.50;99.90
4602;DHT22;2313;48.552;9.370;2023-12-07T06:50:47;-0.50;99.90
4602;DHT22;2313;48.552;9.370;2023-12-07T06:53:13;-0.50;99.90
4602;DHT22;2313;48.552;9.370;2023-12-07T06:55:39;-0.50;99.90
4602;DHT22;2313;48.552;9.370;2023-12-07T06:58:06;-0.50;99.90
4602;DHT22;2313;48.552;9.370;2023-12-07T07:00:32;-0.50;99.90
4602;DHT22;2313;48.552;9.370;2023-12-07T07:02:58;-0.50;99.90
4602;DHT22;2313;48.552;9.370;2023-12-07T07:05:24;-0.50;99.90
4602;DHT22;2313;48.552;9.370;2023-12-07T07:07:49;-0.50;99.90
4602;DHT22;2313;48.552;9.370;2023-12-07T07:10:16;-0.40;99.90
4602;DHT22;2313;48.552;9.370;2023-12-07T07:12:42;-0.40;99.90
4602;DHT22;2313;48.552;9.370;2023-12-07T07:15:08;-0.30;99.90
4602;DHT22;2313;48.552;9.370;2023-12-07T07:17:34;-0.30;99.90
4602;DHT22;2313;48.552;9.370;2023-12-07T07:19:59;-0.20;99.90
4602;DHT22;2313;48.552;9.370;2023-12-07T07:22:25;-0.20;99.90
4602;DHT22;2313;48.552;9.370;2023-12-07T07:24:51;-0.20;99.90
4602;DHT22;2313;48.552;9.370;2023-12-07T07:27:17;-0.10;99.90
4602;DHT22;2313;48.552;9.370;2023-12-07T07:29:43;-0.10;99.90
4602;DHT22;2313;48.552;9.370;2023-12-07T07:32:09;-0.10;99.90
4602;DHT22;2313;48.552;9.370;2023-12-07T07:34:35;-0.20;99.90
4602;DHT22;2313;48.552;9.370;2023-12-07T07:37:01;-0.20;99.90
4602;DHT22;2313;48.552;9.370;2023-12-07T07:39:28;-0.20;99.90
4602;DHT22;2313;48.552;9.370;2023-12-07T07:41:54;-0.20;99.90
4602;DHT22;2313;48.552;9.370;2023-12-07T07:44:19;-0.20;99.90
4602;DHT22;2313;48.552;9.370;2023-12-07T07:46:45;-0.20;99.90
4602;DHT22;2313;48.552;9.370;2023-12-07T07:49:11;-0.20;99.90
4602;DHT22;2313;48.552;9.370;2023-12-07T07:51:37;-0.10;99.90
4602;DHT22;2313;48.552;9.370;2023-12-07T07:54:04;0.10;99.90
4602;DHT22;2313;48.552;9.370;2023-12-07T07:56:29;0.60;99.90
4602;DHT22;2313;48.552;9.370;2023-12-07T07:58:55;1.20;99.90
4602;DHT22;2313;48.552;9.370;2023-12-07T08:01:21;2.40;99.90
4602;DHT22;2313;48.552;9.370;2023-12-07T08:03:46;3.60;99.90
4602;DHT22;2313;48.552;9.370;2023-12-07T08:06:12;5.00;99.90
4602;DHT22;2313;48.552;9.370;2023-12-07T08:08:38;6.40;99.90
4602;DHT22;2313;48.552;9.370;2023-12-07T08:11:03;7.60;99.90
4602;DHT22;2313;48.552;9.370;2023-12-07T08:13:30;8.90;99.90
4602;DHT22;2313;48.552;9.370;2023-12-07T08:15:56;10.00;99.90
4602;DHT22;2313;48.552;9.370;2023-12-07T08:18:21;10.90;99.90
4602;DHT22;2313;48.552;9.370;2023-12-07T08:20:47;11.80;98.50
4602;DHT22;2313;48.552;9.370;2023-12-07T08:23:13;12.50;95.40
4602;DHT22;2313;48.552;9.370;2023-12-07T08:25:39;13.10;94.20
4602;DHT22;2313;48.552;9.370;2023-12-07T08:28:06;13.80;92.10
4602;DHT22;2313;48.552;9.370;2023-12-07T08:30:31;14.30;90.70
4602;DHT22;2313;48.552;9.370;2023-12-07T08:32:57;14.60;88.80
4602;DHT22;2313;48.552;9.370;2023-12-07T08:35:22;15.10;87.20
4602;DHT22;2313;48.552;9.370;2023-12-07T08:37:48;15.40;85.60
4602;DHT22;2313;48.552;9.370;2023-12-07T08:40:14;15.50;84.10
4602;DHT22;2313;48.552;9.370;2023-12-07T08:42:43;15.50;82.70
4602;DHT22;2313;48.552;9.370;2023-12-07T08:45:09;15.60;80.10
4602;DHT22;2313;48.552;9.370;2023-12-07T08:47:34;15.70;80.20
4602;DHT22;2313;48.552;9.370;2023-12-07T08:50:00;15.80;79.70
4602;DHT22;2313;48.552;9.370;2023-12-07T08:52:26;16.00;78.10
4602;DHT22;2313;48.552;9.370;2023-12-07T08:54:52;15.00;73.20
4602;DHT22;2313;48.552;9.370;2023-12-07T08:57:18;13.30;75.40
4602;DHT22;2313;48.552;9.370;2023-12-07T08:59:44;11.70;77.60
4602;DHT22;2313;48.552;9.370;2023-12-07T09:02:09;10.30;81.50
4602;DHT22;2313;48.552;9.370;2023-12-07T09:04:35;9.00;88.10
4602;DHT22;2313;48.552;9.370;2023-12-07T09:07:01;8.10;93.20
4602;DHT22;2313;48.552;9.370;2023-12-07T09:09:26;7.40;98.50
4602;DHT22;2313;48.552;9.370;2023-12-07T09:11:52;6.70;99.90
4602;DHT22;2313;48.552;9.370;2023-12-07T09:14:18;6.20;99.90
4602;DHT22;2313;48.552;9.370;2023-12-07T09:16:45;5.90;99.90
4602;DHT22;2313;48.552;9.370;2023-12-07T09:19:14;5.40;99.90
4602;DHT22;2313;48.552;9.370;2023-12-07T09:21:40;5.30;99.90
4602;DHT22;2313;48.552;9.370;2023-12-07T09:24:06;5.30;99.90
4602;DHT22;2313;48.552;9.370;2023-12-07T09:26:32;5.60;99.90
4602;DHT22;2313;48.552;9.370;2023-12-07T09:28:58;7.50;99.90
4602;DHT22;2313;48.552;9.370;2023-12-07T09:31:23;9.80;99.90
4602;DHT22;2313;48.552;9.370;2023-12-07T09:33:49;11.90;96.30
4602;DHT22;2313;48.552;9.370;2023-12-07T09:36:18;13.50;91.80
4602;DHT22;2313;48.552;9.370;2023-12-07T09:38:44;14.50;89.70
4602;DHT22;2313;48.552;9.370;2023-12-07T09:41:10;15.80;83.90
4602;DHT22;2313;48.552;9.370;2023-12-07T09:43:36;16.60;81.70
4602;DHT22;2313;48.552;9.370;2023-12-07T09:46:02;17.40;78.60
4602;DHT22;2313;48.552;9.370;2023-12-07T09:48:29;18.10;73.10
4602;DHT22;2313;48.552;9.370;2023-12-07T09:50:56;18.70;72.60
4602;DHT22;2313;48.552;9.370;2023-12-07T09:53:22;18.90;72.40
4602;DHT22;2313;48.552;9.370;2023-12-07T09:55:48;19.20;67.70
4602;DHT22;2313;48.552;9.370;2023-12-07T09:58:14;19.50;66.30
4602;DHT22;2313;48.552;9.370;2023-12-07T10:00:40;19.50;64.70
4602;DHT22;2313;48.552;9.370;2023-12-07T10:03:06;19.70;64.20
4602;DHT22;2313;48.552;9.370;2023-12-07T10:05:53;20.10;60.90
4602;DHT22;2313;48.552;9.370;2023-12-07T10:08:31;20.20;58.80
4602;DHT22;2313;48.552;9.370;2023-12-07T10:11:08;20.60;59.30
4602;DHT22;2313;48.552;9.370;2023-12-07T10:13:35;20.80;58.60
4602;DHT22;2313;48.552;9.370;2023-12-07T10:16:12;19.80;56.50
4602;DHT22;2313;48.552;9.370;2023-12-07T10:18:38;19.50;55.80
4602;DHT22;2313;48.552;9.370;2023-12-07T10:21:09;18.50;54.60
4602;DHT22;2313;48.552;9.370;2023-12-07T10:23:38;19.00;54.70
4602;DHT22;2313;48.552;9.370;2023-12-07T10:26:07;19.10;55.90
4602;DHT22;2313;48.552;9.370;2023-12-07T10:28:36;19.40;55.80
4602;DHT22;2313;48.552;9.370;2023-12-07T10:31:02;19.80;53.90
4602;DHT22;2313;48.552;9.370;2023-12-07T10:33:28;19.80;55.90
4602;DHT22;2313;48.552;9.370;2023-12-07T10:35:53;18.10;52.40
4602;DHT22;2313;48.552;9.370;2023-12-07T10:38:19;18.60;52.80
4602;DHT22;2313;48.552;9.370;2023-12-07T10:40:46;17.90;52.20
4602;DHT22;2313;48.552;9.370;2023-12-07T10:43:12;18.20;55.50
4602;DHT22;2313;48.552;9.370;2023-12-07T10:45:41;19.00;54.70
4602;DHT22;2313;48.552;9.370;2023-12-07T10:48:09;19.40;52.50
4602;DHT22;2313;48.552;9.370;2023-12-07T10:50:37;20.20;52.70
4602;DHT22;2313;48.552;9.370;2023-12-07T10:53:15;20.60;53.40
4602;DHT22;2313;48.552;9.370;2023-12-07T10:55:52;20.60;51.30
4602;DHT22;2313;48.552;9.370;2023-12-07T10:58:21;20.00;50.40
4602;DHT22;2313;48.552;9.370;2023-12-07T11:00:48;20.10;52.60
4602;DHT22;2313;48.552;9.370;2023-12-07T11:03:17;19.80;52.60
4602;DHT22;2313;48.552;9.370;2023-12-07T11:05:44;19.20;51.00
4602;DHT22;2313;48.552;9.370;2023-12-07T11:08:37;18.70;50.20
4602;DHT22;2313;48.552;9.370;2023-12-07T11:11:39;19.40;52.70
4602;DHT22;2313;48.552;9.370;2023-12-07T11:14:07;19.20;52.50
4602;DHT22;2313;48.552;9.370;2023-12-07T11:16:41;18.80;52.40
4602;DHT22;2313;48.552;9.370;2023-12-07T11:22:05;17.70;49.70
4602;DHT22;2313;48.552;9.370;2023-12-07T11:24:31;17.00;51.70
4602;DHT22;2313;48.552;9.370;2023-12-07T11:26:57;16.90;51.10
4602;DHT22;2313;48.552;9.370;2023-12-07T11:29:28;16.50;50.40
4602;DHT22;2313;48.552;9.370;2023-12-07T11:32:07;15.90;51.30
4602;DHT22;2313;48.552;9.370;2023-12-07T11:34:40;16.20;53.50
4602;DHT22;2313;48.552;9.370;2023-12-07T11:37:07;15.10;50.60
4602;DHT22;2313;48.552;9.370;2023-12-07T11:39:37;15.10;51.90
4602;DHT22;2313;48.552;9.370;2023-12-07T11:42:10;14.60;51.10
4602;DHT22;2313;48.552;9.370;2023-12-07T11:44:38;13.20;50.90
4602;DHT22;2313;48.552;9.370;2023-12-07T11:47:04;12.50;51.40
4602;DHT22;2313;48.552;9.370;2023-12-07T11:49:31;11.60;51.20
4602;DHT22;2313;48.552;9.370;2023-12-07T11:52:00;11.70;53.40
4602;DHT22;2313;48.552;9.370;2023-12-07T11:54:27;11.50;54.00
4602;DHT22;2313;48.552;9.370;2023-12-07T11:56:56;11.20;52.80
4602;DHT22;2313;48.552;9.370;2023-12-07T11:59:22;10.80;52.80
4602;DHT22;2313;48.552;9.370;2023-12-07T12:01:51;9.80;53.30
4602;DHT22;2313;48.552;9.370;2023-12-07T12:04:16;9.10;53.50
4602;DHT22;2313;48.552;9.370;2023-12-07T12:06:45;8.50;54.10
4602;DHT22;2313;48.552;9.370;2023-12-07T12:09:15;7.90;55.30
4602;DHT22;2313;48.552;9.370;2023-12-07T12:11:47;7.80;57.20
4602;DHT22;2313;48.552;9.370;2023-12-07T12:14:14;7.30;57.60
4602;DHT22;2313;48.552;9.370;2023-12-07T12:16:50;7.00;58.90
4602;DHT22;2313;48.552;9.370;2023-12-07T12:19:15;6.70;59.90
4602;DHT22;2313;48.552;9.370;2023-12-07T12:21:41;6.80;62.70
4602;DHT22;2313;48.552;9.370;2023-12-07T12:24:09;6.50;64.80
4602;DHT22;2313;48.552;9.370;2023-12-07T12:26:36;6.30;65.70
4602;DHT22;2313;48.552;9.370;2023-12-07T12:29:03;6.20;68.20
4602;DHT22;2313;48.552;9.370;2023-12-07T12:31:29;6.00;68.30
4602;DHT22;2313;48.552;9.370;2023-12-07T12:33:55;6.00;68.60
4602;DHT22;2313;48.552;9.370;2023-12-07T12:36:21;5.90;69.00
4602;DHT22;2313;48.552;9.370;2023-12-07T12:38:49;5.90;71.90
4602;DHT22;2313;48.552;9.370;2023-12-07T12:41:19;5.60;69.80
4602;DHT22;2313;48.552;9.370;2023-12-07T12:43:45;5.50;70.90
4602;DHT22;2313;48.552;9.370;2023-12-07T12:46:11;5.60;72.60
4602;DHT22;2313;48.552;9.370;2023-12-07T12:48:37;5.70;72.80
4602;DHT22;2313;48.552;9.370;2023-12-07T12:51:12;5.80;72.10
4602;DHT22;2313;48.552;9.370;2023-12-07T12:53:44;5.70;71.10
4602;DHT22;2313;48.552;9.370;2023-12-07T12:56:12;5.50;70.80
4602;DHT22;2313;48.552;9.370;2023-12-07T12:58:38;5.60;70.50
4602;DHT22;2313;48.552;9.370;2023-12-07T13:01:03;5.50;69.90
4602;DHT22;2313;48.552;9.370;2023-12-07T13:03:29;5.50;71.30
4602;DHT22;2313;48.552;9.370;2023-12-07T13:05:55;5.70;72.00
4602;DHT22;2313;48.552;9.370;2023-12-07T13:08:20;6.00;70.60
4602;DHT22;2313;48.552;9.370;2023-12-07T13:10:46;6.10;68.90
4602;DHT22;2313;48.552;9.370;2023-12-07T13:13:12;6.60;69.60
4602;DHT22;2313;48.552;9.370;2023-12-07T13:15:38;6.90;67.20
4602;DHT22;2313;48.552;9.370;2023-12-07T13:18:03;7.10;66.60
4602;DHT22;2313;48.552;9.370;2023-12-07T13:20:31;6.90;64.70
4602;DHT22;2313;48.552;9.370;2023-12-07T13:22:56;6.30;64.80
4602;DHT22;2313;48.552;9.370;2023-12-07T13:25:22;6.00;66.70
4602;DHT22;2313;48.552;9.370;2023-12-07T13:27:47;6.00;68.80
4602;DHT22;2313;48.552;9.370;2023-12-07T13:30:13;6.00;67.90
4602;DHT22;2313;48.552;9.370;2023-12-07T13:32:39;6.00;67.10
4602;DHT22;2313;48.552;9.370;2023-12-07T13:35:05;6.50;67.40
4602;DHT22;2313;48.552;9.370;2023-12-07T13:37:33;6.60;64.40
4602;DHT22;2313;48.552;9.370;2023-12-07T13:39:59;6.80;65.10
4602;DHT22;2313;48.552;9.370;2023-12-07T13:42:26;7.00;65.90
4602;DHT22;2313;48.552;9.370;2023-12-07T13:44:56;6.60;65.40
4602;DHT22;2313;48.552;9.370;2023-12-07T13:47:24;6.50;67.50
4602;DHT22;2313;48.552;9.370;2023-12-07T13:49:55;6.10;67.90
4602;DHT22;2313;48.552;9.370;2023-12-07T13:52:22;5.80;68.30
4602;DHT22;2313;48.552;9.370;2023-12-07T13:54:47;5.50;69.70
4602;DHT22;2313;48.552;9.370;2023-12-07T13:57:14;5.30;69.20
4602;DHT22;2313;48.552;9.370;2023-12-07T13:59:40;5.10;70.20
4602;DHT22;2313;48.552;9.370;2023-12-07T14:02:06;5.00;71.70
4602;DHT22;2313;48.552;9.370;2023-12-07T14:04:32;4.90;73.50
4602;DHT22;2313;48.552;9.370;2023-12-07T14:07:18;4.90;74.60
4602;DHT22;2313;48.552;9.370;2023-12-07T14:09:46;4.90;77.30
4602;DHT22;2313;48.552;9.370;2023-12-07T14:12:13;4.80;76.30
4602;DHT22;2313;48.552;9.370;2023-12-07T14:14:43;4.80;78.30
4602;DHT22;2313;48.552;9.370;2023-12-07T14:17:10;4.70;79.00
4602;DHT22;2313;48.552;9.370;2023-12-07T14:19:35;4.70;78.60
4602;DHT22;2313;48.552;9.370;2023-12-07T14:22:01;4.50;78.60
4602;DHT22;2313;48.552;9.370;2023-12-07T14:24:27;4.40;80.90
4602;DHT22;2313;48.552;9.370;2023-12-07T14:26:54;4.30;81.70
4602;DHT22;2313;48.552;9.370;2023-12-07T14:29:20;4.30;86.20
4602;DHT22;2313;48.552;9.370;2023-12-07T14:31:47;4.30;86.10
4602;DHT22;2313;48.552;9.370;2023-12-07T14:34:13;4.20;85.40
4602;DHT22;2313;48.552;9.370;2023-12-07T14:36:40;4.20;86.90
4602;DHT22;2313;48.552;9.370;2023-12-07T14:39:07;4.20;87.40
4602;DHT22;2313;48.552;9.370;2023-12-07T14:41:33;4.00;90.00
4602;DHT22;2313;48.552;9.370;2023-12-07T14:43:59;4.00;91.40
4602;DHT22;2313;48.552;9.370;2023-12-07T14:46:25;3.90;91.70
4602;DHT22;2313;48.552;9.370;2023-12-07T14:48:50;3.90;93.60
4602;DHT22;2313;48.552;9.370;2023-12-07T14:51:19;3.80;93.30
4602;DHT22;2313;48.552;9.370;2023-12-07T14:53:48;3.80;94.20
4602;DHT22;2313;48.552;9.370;2023-12-07T14:56:13;3.70;96.80
4602;DHT22;2313;48.552;9.370;2023-12-07T14:58:39;3.60;95.80
4602;DHT22;2313;48.552;9.370;2023-12-07T15:01:06;3.60;97.20
4602;DHT22;2313;48.552;9.370;2023-12-07T15:03:32;3.60;96.70
4602;DHT22;2313;48.552;9.370;2023-12-07T15:05:57;3.50;97.20
4602;DHT22;2313;48.552;9.370;2023-12-07T15:08:23;3.40;97.90
4602;DHT22;2313;48.552;9.370;2023-12-07T15:10:49;3.40;98.70
4602;DHT22;2313;48.552;9.370;2023-12-07T15:13:18;3.40;98.60
4602;DHT22;2313;48.552;9.370;2023-12-07T15:15:44;3.30;99.90
4602;DHT22;2313;48.552;9.370;2023-12-07T15:18:10;3.30;99.80
4602;DHT22;2313;48.552;9.370;2023-12-07T15:20:36;3.20;99.90
4602;DHT22;2313;48.552;9.370;2023-12-07T15:23:02;3.10;99.90
4602;DHT22;2313;48.552;9.370;2023-12-07T15:25:28;3.00;99.90
4602;DHT22;2313;48.552;9.370;2023-12-07T15:27:54;3.00;99.90
4602;DHT22;2313;48.552;9.370;2023-12-07T15:30:20;2.90;99.90
4602;DHT22;2313;48.552;9.370;2023-12-07T15:32:49;2.90;99.90
4602;DHT22;2313;48.552;9.370;2023-12-07T15:35:15;2.90;99.90
4602;DHT22;2313;48.552;9.370;2023-12-07T15:37:42;2.80;99.90
4602;DHT22;2313;48.552;9.370;2023-12-07T15:40:08;2.70;99.90
4602;DHT22;2313;48.552;9.370;2023-12-07T15:42:39;2.60;99.90
4602;DHT22;2313;48.552;9.370;2023-12-07T15:45:07;2.50;99.90
4602;DHT22;2313;48.552;9.370;2023-12-07T15:47:33;2.40;99.90
4602;DHT22;2313;48.552;9.370;2023-12-07T15:49:59;2.40;99.90
4602;DHT22;2313;48.552;9.370;2023-12-07T15:52:25;2.30;99.90
4602;DHT22;2313;48.552;9.370;2023-12-07T15:54:51;2.20;99.90
4602;DHT22;2313;48.552;9.370;2023-12-07T15:57:16;2.20;99.90
4602;DHT22;2313;48.552;9.370;2023-12-07T15:59:42;2.30;99.90
4602;DHT22;2313;48.552;9.370;2023-12-07T16:02:08;2.30;99.90
4602;DHT22;2313;48.552;9.370;2023-12-07T16:04:34;2.30;99.90
4602;DHT22;2313;48.552;9.370;2023-12-07T16:07:01;2.30;99.90
4602;DHT22;2313;48.552;9.370;2023-12-07T16:09:29;2.30;99.90
4602;DHT22;2313;48.552;9.370;2023-12-07T16:11:55;2.30;99.90